createdAt,value
2018-04-07T00:00:24.991Z,68.46
2018-04-07T00:01:24.946Z,68.17
2018-04-07T00:02:25.214Z,68.17
2018-04-07T00:03:25.048Z,68.27
2018-04-07T00:04:25.171Z,68.17
2018-04-07T00:05:25.721Z,68.55
2018-04-07T00:06:24.884Z,68.17
2018-04-07T00:07:25.405Z,68.55
2018-04-07T00:08:25.136Z,68.55
2018-04-07T00:09:25.365Z,68.36
2018-04-07T00:10:24.694Z,68.46
2018-04-07T00:11:24.565Z,68.27
2018-04-07T00:12:24.586Z,68.17
2018-04-07T00:13:25.319Z,67.88
2018-04-07T00:14:24.565Z,67.79
2018-04-07T00:15:25.731Z,68.01
2018-04-07T00:16:26.538Z,67.92
2018-04-07T00:17:24.975Z,67.82
2018-04-07T00:18:25.929Z,67.98
2018-04-07T00:22:24.821Z,67.88
2018-04-07T00:23:24.899Z,67.60
2018-04-07T00:24:24.819Z,67.60
2018-04-07T00:25:23.900Z,67.92
2018-04-07T00:26:23.853Z,67.25
2018-04-07T00:27:23.810Z,67.82
2018-04-07T00:28:23.776Z,68.21
2018-04-07T00:29:23.736Z,67.73
2018-04-07T00:32:50.422Z,67.82
2018-04-07T00:33:50.336Z,67.82
2018-04-07T00:34:50.294Z,68.59
2018-04-07T00:35:50.242Z,68.21
2018-04-07T00:36:50.216Z,68.36
2018-04-07T00:37:50.154Z,68.07
2018-04-07T00:38:50.412Z,68.07
2018-04-07T00:39:50.088Z,68.46
2018-04-07T00:40:50.033Z,68.93
2018-04-07T00:41:49.990Z,68.55
2018-04-07T00:42:49.948Z,68.36
2018-04-07T00:43:49.903Z,68.11
2018-04-07T00:44:50.158Z,68.36
2018-04-07T00:45:49.836Z,68.27
2018-04-07T00:46:49.772Z,68.36
2018-04-07T00:47:49.730Z,68.65
2018-04-07T00:48:49.684Z,68.55
2018-04-07T00:49:49.647Z,68.36
2018-04-07T00:50:49.900Z,68.36
2018-04-07T00:51:49.559Z,68.46
2018-04-07T00:52:49.509Z,68.07
2018-04-07T00:53:49.468Z,68.36
2018-04-07T00:54:49.422Z,69.02
2018-04-07T00:55:49.371Z,69.02
2018-04-07T00:56:49.624Z,69.12
2018-04-07T00:57:49.291Z,68.84
2018-04-07T00:58:49.240Z,69.12
2018-04-07T00:59:49.194Z,69.31
2018-04-07T01:00:49.149Z,69.88
2018-04-07T01:01:49.106Z,69.50
2018-04-07T01:02:49.062Z,69.88
2018-04-07T01:03:49.330Z,69.41
2018-04-07T01:04:48.985Z,69.50
2018-04-07T01:05:48.942Z,69.31
2018-04-07T01:06:48.898Z,69.88
2018-04-07T01:07:48.860Z,70.26
2018-04-07T01:08:48.810Z,70.45
2018-04-07T01:09:48.768Z,70.54
2018-04-07T01:10:49.028Z,70.36
2018-04-07T01:11:48.670Z,70.93
2018-04-07T01:12:48.625Z,70.54
2018-04-07T01:13:48.583Z,71.37
2018-04-07T01:14:48.542Z,71.02
2018-04-07T01:15:48.500Z,70.83
2018-04-07T01:16:48.452Z,70.93
2018-04-07T01:17:48.709Z,71.27
2018-04-07T01:18:48.367Z,71.27
2018-04-07T01:19:48.320Z,71.18
2018-04-07T01:20:48.276Z,71.08
2018-04-07T01:21:48.232Z,70.99
2018-04-07T01:22:48.187Z,71.27
2018-04-07T01:23:48.146Z,71.75
2018-04-07T01:24:48.400Z,71.75
2018-04-07T01:25:48.055Z,72.13
2018-04-07T01:26:48.012Z,72.32
2018-04-07T01:27:47.978Z,73.08
2018-04-07T01:28:47.935Z,72.89
2018-04-07T01:29:47.891Z,72.99
2018-04-07T01:30:47.850Z,72.51
2018-04-07T01:31:48.108Z,72.89
2018-04-07T01:32:47.758Z,72.99
2018-04-07T01:33:47.722Z,72.89
2018-04-07T01:34:47.675Z,73.84
2018-04-07T01:35:47.619Z,73.80
2018-04-07T01:36:47.574Z,73.33
2018-04-07T01:37:47.529Z,73.33
2018-04-07T01:38:47.786Z,73.61
2018-04-07T01:39:47.441Z,73.42
2018-04-07T01:40:47.398Z,73.61
2018-04-07T01:41:47.360Z,74.18
2018-04-07T01:42:47.311Z,74.08
2018-04-07T01:43:47.282Z,74.75
2018-04-07T01:44:47.546Z,75.23
2018-04-07T01:45:47.191Z,75.51
2018-04-07T01:46:47.147Z,75.23
2018-04-07T01:47:47.106Z,75.32
2018-04-07T01:48:47.054Z,75.32
2018-04-07T01:49:47.013Z,75.70
2018-04-07T01:50:47.268Z,75.42
2018-04-07T01:51:46.924Z,76.37
2018-04-07T01:52:46.884Z,75.60
2018-04-07T01:53:47.085Z,75.79
2018-04-07T01:57:46.716Z,75.70
2018-04-07T01:58:46.924Z,75.70
2018-04-07T01:59:46.579Z,75.70
2018-04-07T02:00:46.538Z,75.32
2018-04-07T02:01:46.491Z,75.13
2018-04-07T02:02:46.437Z,74.75
2018-04-07T02:03:46.444Z,75.13
2018-04-07T02:04:46.648Z,75.60
2018-04-07T02:05:46.304Z,75.60
2018-04-07T02:06:46.260Z,75.32
2018-04-07T02:07:46.221Z,75.04
2018-04-07T02:08:46.170Z,75.32
2018-04-07T02:09:46.131Z,75.99
2018-04-07T02:10:46.393Z,75.99
2018-04-07T02:11:46.058Z,75.60
2018-04-07T02:12:46.003Z,75.13
2018-04-07T02:13:45.974Z,75.13
2018-04-07T02:14:45.917Z,74.56
2018-04-07T02:15:45.874Z,74.56
2018-04-07T02:16:45.827Z,74.66
2018-04-07T02:17:46.087Z,74.66
2018-04-07T02:18:45.729Z,74.27
2018-04-07T02:19:45.685Z,74.08
2018-04-07T02:20:45.644Z,74.18
2018-04-07T02:21:45.595Z,74.94
2018-04-07T02:22:45.552Z,74.85
2018-04-07T02:23:45.507Z,74.08
2018-04-07T02:24:45.762Z,74.08
2018-04-07T02:25:45.417Z,74.27
2018-04-07T02:26:45.375Z,74.18
2018-04-07T02:27:45.329Z,74.18
2018-04-07T02:28:45.285Z,73.61
2018-04-07T02:29:45.244Z,74.37
2018-04-07T02:30:45.197Z,74.08
2018-04-07T02:31:45.454Z,74.18
2018-04-07T02:32:45.149Z,73.90
2018-04-07T02:33:45.072Z,73.99
2018-04-07T02:34:45.030Z,74.08
2018-04-07T02:35:45.001Z,74.37
2018-04-07T02:36:44.941Z,73.61
2018-04-07T02:37:44.896Z,73.42
2018-04-07T02:38:45.153Z,73.27
2018-04-07T02:39:44.809Z,73.61
2018-04-07T02:40:44.764Z,73.42
2018-04-07T02:41:44.719Z,73.14
2018-04-07T02:42:44.672Z,72.79
2018-04-07T02:43:44.629Z,72.70
2018-04-07T02:44:44.578Z,72.85
2018-04-07T02:45:44.841Z,72.99
2018-04-07T02:46:44.491Z,72.89
2018-04-07T02:47:44.447Z,72.89
2018-04-07T02:48:44.402Z,72.89
2018-04-07T02:49:44.569Z,72.79
2018-04-07T02:50:44.323Z,73.08
2018-04-07T02:51:44.577Z,72.70
2018-04-07T02:52:44.232Z,72.95
2018-04-07T02:53:44.188Z,72.75
2018-04-07T02:54:44.149Z,72.85
2018-04-07T02:55:44.102Z,72.75
2018-04-07T02:56:44.072Z,72.85
2018-04-07T02:57:44.326Z,72.56
2018-04-07T02:58:43.970Z,73.33
2018-04-07T02:59:43.927Z,73.42
2018-04-07T03:00:43.878Z,73.04
2018-04-07T03:01:43.838Z,73.04
2018-04-07T03:02:43.793Z,72.75
2018-04-07T03:03:44.095Z,72.95
2018-04-07T03:04:43.701Z,72.85
2018-04-07T03:05:43.658Z,72.85
2018-04-07T03:06:43.605Z,73.14
2018-04-07T03:07:43.560Z,73.61
2018-04-07T03:08:43.511Z,73.61
2018-04-07T03:09:43.770Z,73.61
2018-04-07T03:10:43.426Z,73.80
2018-04-07T03:11:43.381Z,73.04
2018-04-07T03:12:43.338Z,72.75
2018-04-07T03:13:43.294Z,73.04
2018-04-07T03:14:43.257Z,73.52
2018-04-07T03:15:43.514Z,73.33
2018-04-07T03:16:43.180Z,73.42
2018-04-07T03:17:43.175Z,73.42
2018-04-07T03:18:43.080Z,73.52
2018-04-07T03:19:43.037Z,73.33
2018-04-07T03:20:42.994Z,73.99
2018-04-07T03:21:43.247Z,74.37
2018-04-07T03:22:42.894Z,74.27
2018-04-07T03:23:42.851Z,74.27
2018-04-07T03:24:42.804Z,74.08
2018-04-07T03:25:42.759Z,74.08
2018-04-07T03:26:42.727Z,73.99
2018-04-07T03:27:42.671Z,74.08
2018-04-07T03:28:42.926Z,74.27
2018-04-07T03:29:42.585Z,73.99
2018-04-07T03:30:42.790Z,74.27
2018-04-07T03:31:42.494Z,73.80
2018-04-07T03:32:42.449Z,73.52
2018-04-07T03:33:42.405Z,73.61
2018-04-07T03:34:42.359Z,73.61
2018-04-07T03:35:42.619Z,73.42
2018-04-07T03:36:42.325Z,73.42
2018-04-07T03:37:42.230Z,73.33
2018-04-07T03:38:42.198Z,73.52
2018-04-07T03:39:42.152Z,73.52
2018-04-07T03:40:42.114Z,73.71
2018-04-07T03:41:42.066Z,73.23
2018-04-07T03:42:42.367Z,73.23
2018-04-07T03:43:41.974Z,73.23
2018-04-07T03:44:41.926Z,73.61
2018-04-07T03:45:41.881Z,73.42
2018-04-07T03:46:41.832Z,73.42
2018-04-07T03:47:41.790Z,74.27
2018-04-07T03:48:41.738Z,74.47
2018-04-07T03:49:41.993Z,74.18
2018-04-07T03:50:41.650Z,73.71
2018-04-07T03:51:41.607Z,73.90
2018-04-07T03:52:41.560Z,73.99
2018-04-07T03:53:41.522Z,73.90
2018-04-07T03:54:41.492Z,73.52
2018-04-07T03:55:41.437Z,73.61
2018-04-07T03:56:41.693Z,73.33
2018-04-07T03:57:41.349Z,73.42
2018-04-07T03:58:41.308Z,73.33
2018-04-07T03:59:41.261Z,73.42
2018-04-07T04:00:41.219Z,73.52
2018-04-07T04:01:41.171Z,73.61
2018-04-07T04:02:41.427Z,73.99
2018-04-07T04:03:41.083Z,74.27
2018-04-07T04:04:41.038Z,74.47
2018-04-07T04:05:40.994Z,74.37
2018-04-07T04:06:40.957Z,74.37
2018-04-07T04:07:40.910Z,74.27
2018-04-07T04:08:41.209Z,74.08
2018-04-07T04:09:40.815Z,74.18
2018-04-07T04:10:40.762Z,73.99
2018-04-07T04:11:40.719Z,74.08
2018-04-07T04:12:40.672Z,74.18
2018-04-07T04:13:40.640Z,74.08
2018-04-07T04:14:41.084Z,74.18
2018-04-07T04:15:40.538Z,74.37
2018-04-07T04:16:40.496Z,74.08
2018-04-07T04:17:40.450Z,74.37
2018-04-07T04:18:40.416Z,73.90
2018-04-07T04:19:40.370Z,73.71
2018-04-07T04:20:40.630Z,74.47
2018-04-07T04:21:40.332Z,74.37
2018-04-07T04:22:40.237Z,74.18
2018-04-07T04:23:40.198Z,74.37
2018-04-07T04:24:40.151Z,74.47
2018-04-07T04:25:40.118Z,74.56
2018-04-07T04:26:40.348Z,74.56
2018-04-07T04:27:40.005Z,74.66
2018-04-07T04:28:39.959Z,74.75
2018-04-07T04:29:39.916Z,74.66
2018-04-07T04:30:40.132Z,74.56
2018-04-07T04:31:39.826Z,75.32
2018-04-07T04:32:40.086Z,75.13
2018-04-07T04:33:39.743Z,75.32
2018-04-07T04:34:39.694Z,75.23
2018-04-07T04:35:39.647Z,75.42
2018-04-07T04:36:39.603Z,75.32
2018-04-07T04:37:39.559Z,75.13
2018-04-07T04:38:39.515Z,75.13
2018-04-07T04:39:39.769Z,75.13
2018-04-07T04:40:39.423Z,75.23
2018-04-07T04:41:39.381Z,75.32
2018-04-07T04:42:39.395Z,75.32
2018-04-07T04:43:39.301Z,75.60
2018-04-07T04:44:39.258Z,75.32
2018-04-07T04:45:39.212Z,75.67
2018-04-07T04:46:39.472Z,75.42
2018-04-07T04:47:39.125Z,75.51
2018-04-07T04:48:39.077Z,75.60
2018-04-07T04:49:39.032Z,75.23
2018-04-07T04:50:38.981Z,75.89
2018-04-07T04:51:38.933Z,76.52
2018-04-07T04:52:38.892Z,76.90
2018-04-07T04:53:39.145Z,77.18
2018-04-07T04:54:38.804Z,76.71
2018-04-07T04:55:38.757Z,76.99
2018-04-07T04:56:38.712Z,76.32
2018-04-07T04:57:38.666Z,76.61
2018-04-07T04:58:38.633Z,76.80
2018-04-07T04:59:38.589Z,76.71
2018-04-07T05:00:38.842Z,76.90
2018-04-07T05:01:38.504Z,76.90
2018-04-07T05:02:38.453Z,76.71
2018-04-07T05:03:38.411Z,76.37
2018-04-07T05:04:38.377Z,76.37
2018-04-07T05:05:38.319Z,76.27
2018-04-07T05:06:38.275Z,76.42
2018-04-07T05:07:38.530Z,76.23
2018-04-07T05:08:38.185Z,76.75
2018-04-07T05:09:38.140Z,75.79
2018-04-07T05:10:38.096Z,75.70
2018-04-07T05:11:38.059Z,75.60
2018-04-07T05:12:38.009Z,75.51
2018-04-07T05:13:38.263Z,75.32
2018-04-07T05:14:37.908Z,75.23
2018-04-07T05:15:37.870Z,75.32
2018-04-07T05:16:37.822Z,75.23
2018-04-07T05:17:37.774Z,75.23
2018-04-07T05:18:37.736Z,74.94
2018-04-07T05:19:37.986Z,75.42
2018-04-07T05:20:37.640Z,74.75
2018-04-07T05:21:37.647Z,74.75
2018-04-07T05:22:37.563Z,74.56
2018-04-07T05:23:37.518Z,75.04
2018-04-07T05:24:37.480Z,74.66
2018-04-07T05:25:37.729Z,74.66
2018-04-07T05:26:37.386Z,74.08
2018-04-07T05:27:37.341Z,73.90
2018-04-07T05:28:37.299Z,74.66
2018-04-07T05:29:37.716Z,74.94
2018-04-07T05:30:37.688Z,74.66
2018-04-07T05:31:37.520Z,74.18
2018-04-07T05:32:37.240Z,74.18
2018-04-07T05:33:37.063Z,74.18
2018-04-07T05:34:37.020Z,74.37
2018-04-07T05:35:36.975Z,73.90
2018-04-07T05:36:36.931Z,74.08
2018-04-07T05:37:37.190Z,74.08
2018-04-07T05:38:36.846Z,73.23
2018-04-07T05:39:36.799Z,73.52
2018-04-07T05:40:36.754Z,73.46
2018-04-07T05:41:36.717Z,72.60
2018-04-07T05:42:36.667Z,72.41
2018-04-07T05:43:36.935Z,72.22
2018-04-07T05:44:36.584Z,72.03
2018-04-07T05:45:36.533Z,72.22
2018-04-07T05:46:36.508Z,71.84
2018-04-07T05:47:36.513Z,71.94
2018-04-07T05:48:36.416Z,72.13
2018-04-07T05:49:36.368Z,72.13
2018-04-07T05:50:36.624Z,71.56
2018-04-07T05:51:36.280Z,71.56
2018-04-07T05:52:36.239Z,70.99
2018-04-07T05:53:36.192Z,72.07
2018-04-07T05:54:36.137Z,71.27
2018-04-07T05:55:36.101Z,71.02
2018-04-07T05:56:36.050Z,70.74
2018-04-07T05:57:36.307Z,71.12
2018-04-07T05:58:35.968Z,70.54
2018-04-07T05:59:35.920Z,70.26
2018-04-07T06:00:35.884Z,70.07
2018-04-07T06:01:35.832Z,69.98
2018-04-07T06:02:35.807Z,69.50
2018-04-07T06:03:35.807Z,69.60
2018-04-07T06:04:36.053Z,69.88
2018-04-07T06:05:35.666Z,69.60
2018-04-07T06:06:35.624Z,69.98
2018-04-07T06:07:35.581Z,69.21
2018-04-07T06:08:35.538Z,69.02
2018-04-07T06:09:35.546Z,68.84
2018-04-07T06:10:35.450Z,68.77
2018-04-07T06:11:35.708Z,69.15
2018-04-07T06:12:35.362Z,68.21
2018-04-07T06:13:35.320Z,67.38
2018-04-07T06:14:35.278Z,66.14
2018-04-07T06:15:35.284Z,65.48
2018-04-07T06:16:35.199Z,65.70
2018-04-07T06:17:35.153Z,64.37
2018-04-07T06:18:35.402Z,63.89
2018-04-07T06:19:35.052Z,64.18
2018-04-07T06:20:35.010Z,64.47
2018-04-07T06:21:35.017Z,63.89
2018-04-07T06:22:34.936Z,62.78
2018-04-07T06:23:34.882Z,62.97
2018-04-07T06:24:35.140Z,62.12
2018-04-07T06:25:34.807Z,62.30
2018-04-07T06:26:34.767Z,61.93
2018-04-07T06:27:34.776Z,61.93
2018-04-07T06:28:34.686Z,61.93
2018-04-07T06:29:34.641Z,62.12
2018-04-07T06:30:34.904Z,62.59
2018-04-07T06:31:34.561Z,62.40
2018-04-07T06:32:34.519Z,61.93
2018-04-07T06:33:34.476Z,62.12
2018-04-07T06:34:34.426Z,62.30
2018-04-07T06:35:34.385Z,61.45
2018-04-07T06:36:34.643Z,61.64
2018-04-07T06:37:34.304Z,61.83
2018-04-07T06:38:34.262Z,62.30
2018-04-07T06:39:34.229Z,61.83
2018-04-07T06:40:34.180Z,61.48
2018-04-07T06:41:34.142Z,61.00
2018-04-07T06:42:34.452Z,60.91
2018-04-07T06:43:34.057Z,60.43
2018-04-07T06:44:34.019Z,59.89
2018-04-07T06:45:33.976Z,60.24
2018-04-07T06:46:33.936Z,60.08
2018-04-07T06:47:33.902Z,60.65
2018-04-07T06:48:34.159Z,60.27
2018-04-07T06:49:33.993Z,59.70
2018-04-07T06:50:34.369Z,59.41
2018-04-07T06:51:33.915Z,59.03
2018-04-07T06:53:33.716Z,58.65
2018-04-07T06:54:34.537Z,58.58
2018-04-07T06:55:33.585Z,58.77
2018-04-07T06:56:33.766Z,58.29
2018-04-07T06:57:33.690Z,57.82
2018-04-07T06:58:33.588Z,57.53
2018-04-07T06:59:33.599Z,57.56
2018-04-07T07:00:33.598Z,56.99
2018-04-07T07:02:33.507Z,56.32
2018-04-07T07:03:33.434Z,56.32
2018-04-07T07:04:33.375Z,56.32
2018-04-07T07:05:33.278Z,56.38
2018-04-07T07:06:33.143Z,55.26
2018-04-07T07:07:33.113Z,53.75
2018-04-07T07:08:33.373Z,51.89
2018-04-07T07:09:33.035Z,53.53
2018-04-07T07:10:33.004Z,52.29
2018-04-07T07:11:32.964Z,52.29
2018-04-07T07:12:32.922Z,51.81
2018-04-07T07:13:32.886Z,51.72
2018-04-07T07:14:32.847Z,51.91
2018-04-07T07:15:33.209Z,52.84
2018-04-07T07:16:32.824Z,52.67
2018-04-07T07:17:32.734Z,52.48
2018-04-07T07:18:32.748Z,52.20
2018-04-07T07:19:32.669Z,52.10
2018-04-07T07:20:32.824Z,52.29
2018-04-07T07:21:32.589Z,52.20
2018-04-07T07:22:32.850Z,51.72
2018-04-07T07:23:32.514Z,51.68
2018-04-07T07:24:32.473Z,51.27
2018-04-07T07:25:32.482Z,51.65
2018-04-07T07:26:32.396Z,51.84
2018-04-07T07:27:32.369Z,50.93
2018-04-07T07:28:32.387Z,50.65
2018-04-07T07:29:32.611Z,48.83
2018-04-07T07:30:32.504Z,48.90
2018-04-07T07:31:32.266Z,49.21
2018-04-07T07:32:32.201Z,49.69
2018-04-07T07:33:32.203Z,49.71
2018-04-07T07:34:32.118Z,49.07
2018-04-07T07:35:32.135Z,47.71
2018-04-07T07:36:32.354Z,47.97
2018-04-07T07:37:32.013Z,49.00
2018-04-07T07:38:32.229Z,49.31
2018-04-07T07:39:31.944Z,49.31
2018-04-07T07:40:31.899Z,49.21
2018-04-07T07:41:31.863Z,49.24
2018-04-07T07:42:32.133Z,48.80
2018-04-07T07:43:31.845Z,49.29
2018-04-07T07:44:31.761Z,50.17
2018-04-07T07:45:31.926Z,49.86
2018-04-07T07:46:31.690Z,51.10
2018-04-07T07:47:31.658Z,50.91
2018-04-07T07:48:33.951Z,49.43
2018-04-07T07:49:32.803Z,49.14
2018-04-07T07:50:31.857Z,47.82
2018-04-07T07:51:31.859Z,47.39
2018-04-07T07:52:32.377Z,48.28
2018-04-07T07:53:31.653Z,47.61
2018-04-07T07:54:32.726Z,47.97
2018-04-07T07:55:32.216Z,48.73
2018-04-07T07:56:31.653Z,48.66
2018-04-07T07:57:32.660Z,48.85
2018-04-07T07:58:31.294Z,49.02
2018-04-07T07:59:31.313Z,49.81
2018-04-07T08:00:31.522Z,48.40
2018-04-07T08:01:31.243Z,48.11
2018-04-07T08:02:31.324Z,47.85
2018-04-07T08:03:31.119Z,46.53
2018-04-07T08:04:31.126Z,45.59
2018-04-07T08:05:31.044Z,44.96
2018-04-07T08:06:31.515Z,43.35
2018-04-07T08:07:31.026Z,43.33
2018-04-07T08:08:30.945Z,42.00
2018-04-07T08:09:31.110Z,41.99
2018-04-07T08:10:30.877Z,43.43
2018-04-07T08:11:30.896Z,43.52
2018-04-07T08:12:31.120Z,42.68
2018-04-07T08:13:30.789Z,43.40
2018-04-07T08:14:30.820Z,44.44
2018-04-07T08:15:30.780Z,44.17
2018-04-07T08:16:30.805Z,43.52
2018-04-07T08:17:30.855Z,43.35
2018-04-07T08:18:30.776Z,42.20
2018-04-07T08:19:30.901Z,41.93
2018-04-07T08:20:30.693Z,42.71
2018-04-07T08:21:30.922Z,45.09
2018-04-07T08:22:30.677Z,45.98
2018-04-07T08:23:31.065Z,46.05
2018-04-07T08:24:30.832Z,45.59
2018-04-07T08:25:30.574Z,44.06
2018-04-07T08:26:30.713Z,43.55
2018-04-07T08:27:30.448Z,44.51
2018-04-07T08:28:30.517Z,44.54
2018-04-07T08:29:30.406Z,44.15
2018-04-07T08:30:30.322Z,43.52
2018-04-07T08:31:30.557Z,42.70
2018-04-07T08:32:30.231Z,40.97
2018-04-07T08:33:30.491Z,39.91
2018-04-07T08:34:30.214Z,40.76
2018-04-07T08:35:30.210Z,40.95
2018-04-07T08:36:30.112Z,42.20
2018-04-07T08:37:30.152Z,41.62
2018-04-07T08:38:30.515Z,42.08
2018-04-07T08:39:30.114Z,42.76
2018-04-07T08:40:30.373Z,43.31
2018-04-07T08:41:30.111Z,43.60
2018-04-07T08:42:30.049Z,42.94
2018-04-07T08:43:29.923Z,43.26
2018-04-07T08:44:29.941Z,42.14
2018-04-07T08:45:29.855Z,41.14
2018-04-07T08:46:29.867Z,42.00
2018-04-07T08:47:30.205Z,42.12
2018-04-07T08:48:30.432Z,41.55
2018-04-07T08:49:29.777Z,42.24
2018-04-07T08:50:30.338Z,41.11
2018-04-07T08:51:29.742Z,39.59
2018-04-07T08:52:29.656Z,39.86
2018-04-07T08:53:29.644Z,40.37
2018-04-07T08:54:29.906Z,40.85
2018-04-07T08:55:29.615Z,41.08
2018-04-07T08:56:29.522Z,40.41
2018-04-07T08:57:29.683Z,40.14
2018-04-07T08:58:29.442Z,38.97
2018-04-07T08:59:29.473Z,40.16
2018-04-07T09:00:29.694Z,38.62
2018-04-07T09:01:29.780Z,38.53
2018-04-07T09:02:29.376Z,38.16
2018-04-07T09:03:29.337Z,38.22
2018-04-07T09:04:29.391Z,39.24
2018-04-07T09:05:29.313Z,37.58
2018-04-07T09:06:29.517Z,39.34
2018-04-07T09:07:29.193Z,38.72
2018-04-07T09:08:29.207Z,37.96
2018-04-07T09:09:29.105Z,38.04
2018-04-07T09:10:29.116Z,37.15
2018-04-07T09:11:29.031Z,37.08
2018-04-07T09:12:29.357Z,38.87
2018-04-07T09:13:29.041Z,39.01
2018-04-07T09:14:28.952Z,37.74
2018-04-07T09:15:28.973Z,39.43
2018-04-07T09:16:28.885Z,36.38
2018-04-07T09:17:28.908Z,36.15
2018-04-07T09:18:29.133Z,36.85
2018-04-07T09:19:28.826Z,36.13
2018-04-07T09:20:28.826Z,36.73
2018-04-07T09:21:28.751Z,37.12
2018-04-07T09:22:28.979Z,35.10
2018-04-07T09:23:28.748Z,36.13
2018-04-07T09:24:29.067Z,36.63
2018-04-07T09:25:28.695Z,37.04
2018-04-07T09:26:28.626Z,35.61
2018-04-07T09:27:28.638Z,34.32
2018-04-07T09:28:28.613Z,36.07
2018-04-07T09:29:28.536Z,36.29
2018-04-07T09:30:28.860Z,35.05
2018-04-07T09:31:28.488Z,34.66
2018-04-07T09:32:28.515Z,34.55
2018-04-07T09:33:28.491Z,34.45
2018-04-07T09:34:28.420Z,35.44
2018-04-07T09:35:28.538Z,34.78
2018-04-07T09:36:28.364Z,35.00
2018-04-07T09:37:28.691Z,32.92
2018-04-07T09:38:28.562Z,33.52
2018-04-07T09:39:28.291Z,34.42
2018-04-07T09:40:28.299Z,32.92
2018-04-07T09:41:28.234Z,33.44
2018-04-07T09:42:28.405Z,33.25
2018-04-07T09:43:28.224Z,33.36
2018-04-07T09:44:28.448Z,33.01
2018-04-07T09:45:28.178Z,31.34
2018-04-07T09:46:28.164Z,31.73
2018-04-07T09:47:28.129Z,33.33
2018-04-07T09:48:28.118Z,33.97
2018-04-07T09:49:28.043Z,34.02
2018-04-07T09:50:28.065Z,33.47
2018-04-07T09:51:28.287Z,31.49
2018-04-07T09:52:28.022Z,30.98
2018-04-07T09:53:28.201Z,30.68
2018-04-07T09:54:27.912Z,32.39
2018-04-07T09:55:27.940Z,31.74
2018-04-07T09:56:27.922Z,30.88
2018-04-07T09:57:27.890Z,30.65
2018-04-07T09:58:28.167Z,31.41
2018-04-07T09:59:27.797Z,32.67
2018-04-07T10:00:28.017Z,32.28
2018-04-07T10:01:27.796Z,31.71
2018-04-07T10:02:27.769Z,33.18
2018-04-07T10:03:27.745Z,31.43
2018-04-07T10:04:27.859Z,31.76
2018-04-07T10:05:28.237Z,33.31
2018-04-07T10:06:27.663Z,32.94
2018-04-07T10:07:27.590Z,33.12
2018-04-07T10:08:27.816Z,33.98
2018-04-07T10:09:27.590Z,32.76
2018-04-07T10:10:27.517Z,33.09
2018-04-07T10:11:27.542Z,31.63
2018-04-07T10:12:27.779Z,31.57
2018-04-07T10:13:27.504Z,30.96
2018-04-07T10:14:27.479Z,33.05
2018-04-07T10:15:27.405Z,32.78
2018-04-07T10:16:27.434Z,33.26
2018-04-07T10:17:27.359Z,32.92
2018-04-07T10:18:27.694Z,30.52
2018-04-07T10:19:27.361Z,29.55
2018-04-07T10:20:27.280Z,30.49
2018-04-07T10:21:27.305Z,31.34
2018-04-07T10:22:27.230Z,31.78
2018-04-07T10:23:27.465Z,33.23
2018-04-07T10:24:27.493Z,32.76
2018-04-07T10:25:27.158Z,31.63
2018-04-07T10:26:27.187Z,31.26
2018-04-07T10:27:27.115Z,30.69
2018-04-07T10:28:27.449Z,30.86
2018-04-07T10:29:27.316Z,31.37
2018-04-07T10:30:27.343Z,29.85
2018-04-07T10:31:27.269Z,28.74
2018-04-07T10:32:27.044Z,27.94
2018-04-07T10:33:27.024Z,28.30
2018-04-07T10:34:26.999Z,28.74
2018-04-07T10:35:26.924Z,27.86
2018-04-07T10:36:27.265Z,28.51
2018-04-07T10:37:26.974Z,28.15
2018-04-07T10:38:26.918Z,28.32
2018-04-07T10:39:26.894Z,28.53
2018-04-07T10:40:26.819Z,28.40
2018-04-07T10:41:27.000Z,30.47
2018-04-07T10:42:27.275Z,30.98
2018-04-07T10:43:26.807Z,30.91
2018-04-07T10:44:26.919Z,30.68
2018-04-07T10:45:26.712Z,30.89
2018-04-07T10:46:26.725Z,30.41
2018-04-07T10:47:26.702Z,30.54
2018-04-07T10:48:26.983Z,28.76
2018-04-07T10:49:26.659Z,29.53
2018-04-07T10:50:26.594Z,29.52
2018-04-07T10:51:26.611Z,29.84
2018-04-07T10:52:26.602Z,29.16
2018-04-07T10:53:26.578Z,28.87
2018-04-07T10:54:26.861Z,28.89
2018-04-07T10:55:26.485Z,29.05
2018-04-07T10:56:26.510Z,29.16
2018-04-07T10:57:26.687Z,29.37
2018-04-07T10:58:26.416Z,28.75
2018-04-07T10:59:26.442Z,27.11
2018-04-07T11:00:26.367Z,27.80
2018-04-07T11:01:26.712Z,26.83
2018-04-07T11:02:26.373Z,26.78
2018-04-07T11:03:26.317Z,28.40
2018-04-07T11:04:26.329Z,28.50
2018-04-07T11:05:26.256Z,28.03
2018-04-07T11:06:26.493Z,28.53
2018-04-07T11:07:26.271Z,29.93
2018-04-07T11:08:26.481Z,27.00
2018-04-07T11:09:26.211Z,27.19
2018-04-07T11:10:26.163Z,27.76
2018-04-07T11:11:26.185Z,27.19
2018-04-07T11:12:26.141Z,27.28
2018-04-07T11:13:26.077Z,27.87
2018-04-07T11:14:26.109Z,27.17
2018-04-07T11:15:26.326Z,28.07
2018-04-07T11:16:26.076Z,27.31
2018-04-07T11:17:26.051Z,26.23
2018-04-07T11:18:25.978Z,28.03
2018-04-07T11:19:26.154Z,29.15
2018-04-07T11:20:26.048Z,29.47
2018-04-07T11:21:26.158Z,28.70
2018-04-07T11:22:26.240Z,27.49
2018-04-07T11:23:25.867Z,28.58
2018-04-07T11:24:25.887Z,28.20
2018-04-07T11:25:25.807Z,28.41
2018-04-07T11:26:25.839Z,28.04
2018-04-07T11:27:25.812Z,27.67
2018-04-07T11:28:25.738Z,27.00
2018-04-07T11:29:26.071Z,26.67
2018-04-07T11:30:25.692Z,25.71
2018-04-07T11:31:25.721Z,24.04
2018-04-07T11:32:25.898Z,25.82
2018-04-07T11:33:25.627Z,25.90
2018-04-07T11:34:25.655Z,26.51
2018-04-07T11:35:25.664Z,26.15
2018-04-07T11:36:25.920Z,24.71
2018-04-07T11:37:25.593Z,25.63
2018-04-07T11:38:25.523Z,28.65
2018-04-07T11:39:25.544Z,26.34
2018-04-07T11:40:25.534Z,26.90
2018-04-07T11:41:25.519Z,25.67
2018-04-07T11:42:25.793Z,26.76
2018-04-07T11:43:25.422Z,24.91
2018-04-07T11:44:25.463Z,25.78
2018-04-07T11:45:25.577Z,24.72
2018-04-07T11:46:25.459Z,24.71
2018-04-07T11:47:25.382Z,25.30
2018-04-07T11:48:25.600Z,24.40
2018-04-07T11:49:25.328Z,25.65
2018-04-07T11:50:25.308Z,26.59
2018-04-07T11:51:25.290Z,27.76
2018-04-07T11:52:25.260Z,27.00
2018-04-07T11:53:25.191Z,28.61
2018-04-07T11:54:25.668Z,24.65
2018-04-07T11:55:25.201Z,24.40
2018-04-07T11:56:25.134Z,27.57
2018-04-07T11:57:25.162Z,27.11
2018-04-07T11:58:25.092Z,26.28
2018-04-07T11:59:25.118Z,25.32
2018-04-07T12:00:25.397Z,24.48
2018-04-07T12:01:25.076Z,24.33
2018-04-07T12:02:25.067Z,25.75
2018-04-07T12:03:24.984Z,26.04
2018-04-07T12:04:25.012Z,26.60
2018-04-07T12:05:25.187Z,27.90
2018-04-07T12:06:25.419Z,27.64
2018-04-07T12:07:24.943Z,29.37
2018-04-07T12:08:24.870Z,29.66
2018-04-07T12:09:25.106Z,29.80
2018-04-07T12:10:24.876Z,27.12
2018-04-07T12:11:24.824Z,26.14
2018-04-07T12:12:25.122Z,25.84
2018-04-07T12:13:24.749Z,27.05
2018-04-07T12:14:24.794Z,25.99
2018-04-07T12:15:24.752Z,24.45
2018-04-07T12:16:24.683Z,24.24
2018-04-07T12:17:24.706Z,23.95
2018-04-07T12:18:24.937Z,24.22
2018-04-07T12:19:24.864Z,23.52
2018-04-07T12:20:24.649Z,25.84
2018-04-07T12:21:24.579Z,26.03
2018-04-07T12:22:24.614Z,25.26
2018-04-07T12:23:24.531Z,24.69
2018-04-07T12:24:24.559Z,25.18
2018-04-07T12:25:24.858Z,25.57
2018-04-07T12:26:24.463Z,26.22
2018-04-07T12:27:24.492Z,26.53
2018-04-07T12:28:24.407Z,26.75
2018-04-07T12:29:24.596Z,27.20
2018-04-07T12:30:24.417Z,23.56
2018-04-07T12:31:24.341Z,24.44
2018-04-07T12:32:24.677Z,24.44
2018-04-07T12:33:24.300Z,24.91
2018-04-07T12:34:24.524Z,24.94
2018-04-07T12:35:24.452Z,23.88
2018-04-07T12:36:24.246Z,23.29
2018-04-07T12:37:24.258Z,23.56
2018-04-07T12:38:24.244Z,24.52
2018-04-07T12:39:24.514Z,24.83
2018-04-07T12:40:24.195Z,24.46
2018-04-07T12:41:24.132Z,23.69
2018-04-07T12:42:24.148Z,23.80
2018-04-07T12:43:24.126Z,23.01
2018-04-07T19:54:34.865Z,69.73
2018-04-07T19:55:34.527Z,69.64
2018-04-07T20:01:03.283Z,71.16
2018-04-07T20:02:03.609Z,71.45
2018-04-07T20:03:03.255Z,73.04
2018-04-07T20:04:03.172Z,73.23
2018-04-07T20:05:03.178Z,72.18
2018-04-07T20:06:03.087Z,72.18
2018-04-07T20:07:03.109Z,71.61
2018-04-07T20:08:03.526Z,71.89
2018-04-07T20:09:02.976Z,72.37
2018-04-07T20:10:02.988Z,72.18
2018-04-07T20:11:02.958Z,72.08
2018-04-07T20:12:02.913Z,72.37
2018-04-07T20:13:02.868Z,71.61
2018-04-07T20:14:03.079Z,71.80
2018-04-07T20:15:02.794Z,71.64
2018-04-07T20:16:02.958Z,71.89
2018-04-07T20:17:02.710Z,71.80